This is the latest recevied weather packets stored in our database for station/object YO6KXQ-11. If no packets are shown the sender has not sent any weather packets the latest 1 day(s).
| Time | Temp. | Humidity | Pressure | Rain* | Wind** | Luminosity | Snow |
|---|---|---|---|---|---|---|---|
| 1777802230 | 12.22° C | 44% | 1026.6 hPa | - | - | - | - |
| 1777801329 | 12.22° C | 46% | 1026.7 hPa | - | - | - | - |
| 1777800429 | 11.67° C | 46% | 1027 hPa | - | - | - | - |
| 1777799529 | 11.67° C | 42% | 1027 hPa | - | - | - | - |
| 1777798629 | 11.67° C | 45% | 1027 hPa | - | - | - | - |
| 1777797729 | 11.11° C | 49% | 1027.1 hPa | - | - | - | - |
| 1777796829 | 11.67° C | 45% | 1027.1 hPa | - | - | - | - |
| 1777795928 | 11.11° C | 49% | 1027.3 hPa | - | - | - | - |
| 1777795027 | 11.11° C | 49% | 1027.3 hPa | - | - | - | - |
| 1777794127 | 11.11° C | 49% | 1027.2 hPa | - | - | - | - |
| 1777793227 | 10.56° C | 50% | 1027.4 hPa | - | - | - | - |
| 1777792327 | 10.56° C | 49% | 1027.2 hPa | - | - | - | - |
| 1777791427 | 10.56° C | 49% | 1027.3 hPa | - | - | - | - |
| 1777790526 | 10.56° C | 50% | 1027.3 hPa | - | - | - | - |
| 1777789626 | 10.56° C | 49% | 1027.3 hPa | - | - | - | - |
| 1777788726 | 10.56° C | 49% | 1027.3 hPa | - | - | - | - |
| 1777787826 | 10.56° C | 49% | 1027.3 hPa | - | - | - | - |
| 1777786923 | 10.56° C | 48% | 1027.3 hPa | - | - | - | - |
| 1777786023 | 10.56° C | 49% | 1027.2 hPa | - | - | - | - |
| 1777785123 | 11.11° C | 48% | 1027.2 hPa | - | - | - | - |
| 1777784223 | 10.56° C | 48% | 1027.2 hPa | - | - | - | - |
| 1777783322 | 10.56° C | 48% | 1027.1 hPa | - | - | - | - |
| 1777782422 | 10.56° C | 49% | 1027 hPa | - | - | - | - |
| 1777781522 | 10.56° C | 49% | 1026.9 hPa | - | - | - | - |
| 1777780622 | 10.56° C | 49% | 1026.8 hPa | - | - | - | - |
* Rain since midnight (hover to see other rain measurements)
** Current wind speed in m/s (hover to see current wind gust speed)